Startpagina
METAR-TAF:

METAR-TAF

Vliegvelden :

Nassau, Bahama's

Lynden Pindling International Airport

breedte: 25-03N, lengte: 077-28W, hoogte: 3 m

Actueel weer

Dit bericht is 34 minuten geleden gemaakt, om 03:00 UTC
Wind 4 kt uit het oosten
Temperatuur 28°C
Vochtigheid 84%
Druk 1019 hPa
Zicht 10 km of meer
Verspreide wolken op 1800 ft, Stapelwolken.

METAR: MYNN 230300Z 09004KT 9999 SCT018TCU 28/25 A3009 RMK TCU/SE RE14

Tijdstip: 23:34 (03:34 UTC)

Verwachting

Verwachting geldig van 22 om 22 UTC tot 23 om 21 UTC
Wind 6 kt uit het oosten
Zicht 10 km of meer
Verspreide wolken op 2200 ft
Van 23 om 1200 UTC
Wind 10 kt uit het oosten
Zicht 10 km of meer
Verspreide wolken op 1600 ft, Cumulonimbus.
Verspreide wolken op 5000 ft

TAF: MYNN 222245 2300/2400 08006KT 9999 SCT022 FM231200 10010KT 9999 SCT016CB SCT050

Waarnemingen en weersverwachtingen van meer dan 4000 vliegvelden (METAR en TAF).

De beschikbare stations zijn de gele en rode punten op de kaart.

Ga met uw muis naar het station om de naam te zien.

Klik dan om waarnemingen en weersverwachtingen te zien.

kaart wijzigen: klik op de groene knoppen met een zwart kruis om in te zoomen, op de groene knop met een streepje om uit te zoomen of op de groene pijlen voor aangrenzende kaarten.


METAR-TAF: